sensor_id;sensor_type;location;lat;lon;timestamp;P1;durP1;ratioP1;P2;durP2;ratioP2
10641;SDS011;5369;49.586;8.646;2023-09-30T00:01:50;4.43;;;3.20;;
10641;SDS011;5369;49.586;8.646;2023-09-30T00:04:17;5.47;;;3.17;;
10641;SDS011;5369;49.586;8.646;2023-09-30T00:06:43;5.33;;;3.10;;
10641;SDS011;5369;49.586;8.646;2023-09-30T00:09:09;4.50;;;3.20;;
10641;SDS011;5369;49.586;8.646;2023-09-30T00:11:36;4.70;;;3.50;;
10641;SDS011;5369;49.586;8.646;2023-09-30T00:14:03;5.90;;;3.20;;
10641;SDS011;5369;49.586;8.646;2023-09-30T00:16:29;3.80;;;3.00;;
10641;SDS011;5369;49.586;8.646;2023-09-30T00:18:56;3.60;;;2.83;;
10641;SDS011;5369;49.586;8.646;2023-09-30T00:21:23;4.80;;;3.10;;
10641;SDS011;5369;49.586;8.646;2023-09-30T00:23:49;5.80;;;3.10;;
10641;SDS011;5369;49.586;8.646;2023-09-30T00:26:16;5.77;;;3.23;;
10641;SDS011;5369;49.586;8.646;2023-09-30T00:28:45;5.87;;;3.50;;
10641;SDS011;5369;49.586;8.646;2023-09-30T00:31:11;4.23;;;3.03;;
10641;SDS011;5369;49.586;8.646;2023-09-30T00:33:37;5.23;;;2.93;;
10641;SDS011;5369;49.586;8.646;2023-09-30T00:36:07;4.37;;;3.33;;
10641;SDS011;5369;49.586;8.646;2023-09-30T00:38:34;4.97;;;3.40;;
10641;SDS011;5369;49.586;8.646;2023-09-30T00:41:00;4.87;;;3.10;;
10641;SDS011;5369;49.586;8.646;2023-09-30T00:43:26;3.97;;;3.30;;
10641;SDS011;5369;49.586;8.646;2023-09-30T00:46:01;4.07;;;3.20;;
10641;SDS011;5369;49.586;8.646;2023-09-30T00:48:29;4.67;;;3.20;;
10641;SDS011;5369;49.586;8.646;2023-09-30T00:50:55;5.63;;;3.70;;
10641;SDS011;5369;49.586;8.646;2023-09-30T00:53:22;4.10;;;2.93;;
10641;SDS011;5369;49.586;8.646;2023-09-30T00:55:49;4.33;;;2.87;;
10641;SDS011;5369;49.586;8.646;2023-09-30T00:58:16;7.33;;;3.80;;
10641;SDS011;5369;49.586;8.646;2023-09-30T01:00:43;5.60;;;3.40;;
10641;SDS011;5369;49.586;8.646;2023-09-30T01:03:09;5.03;;;3.53;;
10641;SDS011;5369;49.586;8.646;2023-09-30T01:05:36;5.40;;;3.43;;
10641;SDS011;5369;49.586;8.646;2023-09-30T01:08:02;5.50;;;3.33;;
10641;SDS011;5369;49.586;8.646;2023-09-30T01:10:29;5.30;;;3.20;;
10641;SDS011;5369;49.586;8.646;2023-09-30T01:12:55;4.47;;;3.57;;
10641;SDS011;5369;49.586;8.646;2023-09-30T01:15:23;4.83;;;3.27;;
10641;SDS011;5369;49.586;8.646;2023-09-30T01:17:49;4.47;;;3.40;;
10641;SDS011;5369;49.586;8.646;2023-09-30T01:20:15;4.87;;;3.30;;
10641;SDS011;5369;49.586;8.646;2023-09-30T01:22:42;4.67;;;3.33;;
10641;SDS011;5369;49.586;8.646;2023-09-30T01:25:10;4.73;;;3.43;;
10641;SDS011;5369;49.586;8.646;2023-09-30T01:27:36;4.57;;;3.20;;
10641;SDS011;5369;49.586;8.646;2023-09-30T01:30:02;5.13;;;3.27;;
10641;SDS011;5369;49.586;8.646;2023-09-30T01:32:30;3.43;;;3.13;;
10641;SDS011;5369;49.586;8.646;2023-09-30T01:34:57;5.03;;;3.50;;
10641;SDS011;5369;49.586;8.646;2023-09-30T01:37:26;4.37;;;3.37;;
10641;SDS011;5369;49.586;8.646;2023-09-30T01:39:52;4.73;;;3.43;;
10641;SDS011;5369;49.586;8.646;2023-09-30T01:42:20;5.33;;;3.47;;
10641;SDS011;5369;49.586;8.646;2023-09-30T01:44:46;4.20;;;3.10;;
10641;SDS011;5369;49.586;8.646;2023-09-30T01:47:13;3.83;;;3.20;;
10641;SDS011;5369;49.586;8.646;2023-09-30T01:49:39;4.77;;;3.60;;
10641;SDS011;5369;49.586;8.646;2023-09-30T01:52:05;7.47;;;3.97;;
10641;SDS011;5369;49.586;8.646;2023-09-30T01:54:31;5.00;;;3.27;;
10641;SDS011;5369;49.586;8.646;2023-09-30T01:56:57;5.70;;;3.60;;
10641;SDS011;5369;49.586;8.646;2023-09-30T01:59:24;4.83;;;3.40;;
10641;SDS011;5369;49.586;8.646;2023-09-30T02:01:50;6.10;;;3.53;;
10641;SDS011;5369;49.586;8.646;2023-09-30T02:04:16;5.63;;;3.30;;
10641;SDS011;5369;49.586;8.646;2023-09-30T02:06:42;4.57;;;3.20;;
10641;SDS011;5369;49.586;8.646;2023-09-30T02:09:09;4.03;;;3.20;;
10641;SDS011;5369;49.586;8.646;2023-09-30T02:11:35;5.57;;;3.50;;
10641;SDS011;5369;49.586;8.646;2023-09-30T02:14:03;3.90;;;3.13;;
10641;SDS011;5369;49.586;8.646;2023-09-30T02:16:31;4.53;;;3.27;;
10641;SDS011;5369;49.586;8.646;2023-09-30T02:18:57;6.07;;;2.90;;
10641;SDS011;5369;49.586;8.646;2023-09-30T02:21:23;5.60;;;3.50;;
10641;SDS011;5369;49.586;8.646;2023-09-30T02:23:49;6.10;;;3.63;;
10641;SDS011;5369;49.586;8.646;2023-09-30T02:26:20;4.20;;;3.00;;
10641;SDS011;5369;49.586;8.646;2023-09-30T02:28:47;6.40;;;3.43;;
10641;SDS011;5369;49.586;8.646;2023-09-30T02:31:14;4.73;;;3.80;;
10641;SDS011;5369;49.586;8.646;2023-09-30T02:33:43;4.77;;;3.27;;
10641;SDS011;5369;49.586;8.646;2023-09-30T02:36:09;4.83;;;3.30;;
10641;SDS011;5369;49.586;8.646;2023-09-30T02:38:35;5.07;;;3.83;;
10641;SDS011;5369;49.586;8.646;2023-09-30T02:41:05;5.20;;;3.70;;
10641;SDS011;5369;49.586;8.646;2023-09-30T02:43:31;5.07;;;4.00;;
10641;SDS011;5369;49.586;8.646;2023-09-30T02:45:58;5.53;;;3.77;;
10641;SDS011;5369;49.586;8.646;2023-09-30T02:48:24;4.60;;;3.83;;
10641;SDS011;5369;49.586;8.646;2023-09-30T02:50:51;4.27;;;3.73;;
10641;SDS011;5369;49.586;8.646;2023-09-30T02:53:18;5.33;;;3.60;;
10641;SDS011;5369;49.586;8.646;2023-09-30T02:55:44;5.83;;;3.90;;
10641;SDS011;5369;49.586;8.646;2023-09-30T02:58:11;5.03;;;3.60;;
10641;SDS011;5369;49.586;8.646;2023-09-30T03:00:37;6.27;;;4.00;;
10641;SDS011;5369;49.586;8.646;2023-09-30T03:03:04;5.87;;;4.07;;
10641;SDS011;5369;49.586;8.646;2023-09-30T03:05:30;5.43;;;4.17;;
10641;SDS011;5369;49.586;8.646;2023-09-30T03:08:01;7.13;;;3.93;;
10641;SDS011;5369;49.586;8.646;2023-09-30T03:10:27;6.30;;;4.37;;
10641;SDS011;5369;49.586;8.646;2023-09-30T03:12:54;6.77;;;4.20;;
10641;SDS011;5369;49.586;8.646;2023-09-30T03:15:20;6.20;;;4.23;;
10641;SDS011;5369;49.586;8.646;2023-09-30T03:17:46;5.87;;;4.03;;
10641;SDS011;5369;49.586;8.646;2023-09-30T03:20:14;6.00;;;3.80;;
10641;SDS011;5369;49.586;8.646;2023-09-30T03:22:44;5.23;;;3.97;;
10641;SDS011;5369;49.586;8.646;2023-09-30T03:25:14;6.53;;;4.10;;
10641;SDS011;5369;49.586;8.646;2023-09-30T03:27:42;4.70;;;4.20;;
10641;SDS011;5369;49.586;8.646;2023-09-30T03:30:09;6.97;;;4.03;;
10641;SDS011;5369;49.586;8.646;2023-09-30T03:32:36;5.83;;;4.00;;
10641;SDS011;5369;49.586;8.646;2023-09-30T03:35:04;6.17;;;4.03;;
10641;SDS011;5369;49.586;8.646;2023-09-30T03:37:31;5.73;;;4.10;;
10641;SDS011;5369;49.586;8.646;2023-09-30T03:39:57;4.77;;;3.63;;
10641;SDS011;5369;49.586;8.646;2023-09-30T03:42:23;7.83;;;4.10;;
10641;SDS011;5369;49.586;8.646;2023-09-30T03:44:50;5.23;;;4.00;;
10641;SDS011;5369;49.586;8.646;2023-09-30T03:47:16;6.03;;;4.03;;
10641;SDS011;5369;49.586;8.646;2023-09-30T03:49:43;5.83;;;3.60;;
10641;SDS011;5369;49.586;8.646;2023-09-30T03:52:09;6.53;;;4.20;;
10641;SDS011;5369;49.586;8.646;2023-09-30T03:54:36;5.90;;;4.33;;
10641;SDS011;5369;49.586;8.646;2023-09-30T03:57:02;7.30;;;4.40;;
10641;SDS011;5369;49.586;8.646;2023-09-30T03:59:29;7.40;;;4.40;;
10641;SDS011;5369;49.586;8.646;2023-09-30T04:01:55;6.30;;;4.20;;
10641;SDS011;5369;49.586;8.646;2023-09-30T04:04:24;4.60;;;3.60;;
10641;SDS011;5369;49.586;8.646;2023-09-30T04:06:51;5.13;;;3.60;;
10641;SDS011;5369;49.586;8.646;2023-09-30T04:09:17;4.70;;;3.67;;
10641;SDS011;5369;49.586;8.646;2023-09-30T04:11:44;7.70;;;4.67;;
10641;SDS011;5369;49.586;8.646;2023-09-30T04:14:11;4.60;;;3.63;;
10641;SDS011;5369;49.586;8.646;2023-09-30T04:16:37;8.77;;;4.50;;
10641;SDS011;5369;49.586;8.646;2023-09-30T04:19:04;7.20;;;5.60;;
10641;SDS011;5369;49.586;8.646;2023-09-30T04:21:32;6.97;;;5.27;;
10641;SDS011;5369;49.586;8.646;2023-09-30T04:23:59;5.33;;;4.53;;
10641;SDS011;5369;49.586;8.646;2023-09-30T04:26:25;6.23;;;4.23;;
10641;SDS011;5369;49.586;8.646;2023-09-30T04:28:52;6.73;;;4.50;;
10641;SDS011;5369;49.586;8.646;2023-09-30T04:31:21;6.43;;;3.77;;
10641;SDS011;5369;49.586;8.646;2023-09-30T04:33:49;4.77;;;3.73;;
10641;SDS011;5369;49.586;8.646;2023-09-30T04:36:16;5.03;;;4.07;;
10641;SDS011;5369;49.586;8.646;2023-09-30T04:38:42;4.53;;;3.67;;
10641;SDS011;5369;49.586;8.646;2023-09-30T04:41:09;5.50;;;4.00;;
10641;SDS011;5369;49.586;8.646;2023-09-30T04:43:35;6.53;;;4.17;;
10641;SDS011;5369;49.586;8.646;2023-09-30T04:46:04;5.33;;;4.30;;
10641;SDS011;5369;49.586;8.646;2023-09-30T04:48:32;6.70;;;4.57;;
10641;SDS011;5369;49.586;8.646;2023-09-30T04:50:59;7.60;;;4.87;;
10641;SDS011;5369;49.586;8.646;2023-09-30T04:53:25;8.93;;;5.77;;
10641;SDS011;5369;49.586;8.646;2023-09-30T04:55:51;9.03;;;5.90;;
10641;SDS011;5369;49.586;8.646;2023-09-30T04:58:17;7.63;;;5.40;;
10641;SDS011;5369;49.586;8.646;2023-09-30T05:00:43;10.80;;;6.00;;
10641;SDS011;5369;49.586;8.646;2023-09-30T05:03:09;9.07;;;6.40;;
10641;SDS011;5369;49.586;8.646;2023-09-30T05:05:36;8.47;;;5.27;;
10641;SDS011;5369;49.586;8.646;2023-09-30T05:08:02;8.57;;;6.00;;
10641;SDS011;5369;49.586;8.646;2023-09-30T05:10:29;7.30;;;5.47;;
10641;SDS011;5369;49.586;8.646;2023-09-30T05:12:55;6.77;;;4.67;;
10641;SDS011;5369;49.586;8.646;2023-09-30T05:15:22;8.50;;;4.97;;
10641;SDS011;5369;49.586;8.646;2023-09-30T05:17:48;7.60;;;5.73;;
10641;SDS011;5369;49.586;8.646;2023-09-30T05:20:15;8.60;;;4.90;;
10641;SDS011;5369;49.586;8.646;2023-09-30T05:22:45;8.60;;;6.07;;
10641;SDS011;5369;49.586;8.646;2023-09-30T05:25:14;8.37;;;5.90;;
10641;SDS011;5369;49.586;8.646;2023-09-30T05:27:45;7.53;;;6.30;;
10641;SDS011;5369;49.586;8.646;2023-09-30T05:30:14;7.13;;;5.90;;
10641;SDS011;5369;49.586;8.646;2023-09-30T05:32:41;8.17;;;6.60;;
10641;SDS011;5369;49.586;8.646;2023-09-30T05:35:08;9.73;;;6.90;;
10641;SDS011;5369;49.586;8.646;2023-09-30T05:37:44;11.80;;;7.50;;
10641;SDS011;5369;49.586;8.646;2023-09-30T05:40:14;7.77;;;6.70;;
10641;SDS011;5369;49.586;8.646;2023-09-30T05:42:54;9.10;;;7.20;;
10641;SDS011;5369;49.586;8.646;2023-09-30T05:45:22;8.00;;;6.20;;
10641;SDS011;5369;49.586;8.646;2023-09-30T05:47:54;9.47;;;7.10;;
10641;SDS011;5369;49.586;8.646;2023-09-30T05:50:22;7.90;;;6.57;;
10641;SDS011;5369;49.586;8.646;2023-09-30T05:52:52;8.00;;;6.53;;
10641;SDS011;5369;49.586;8.646;2023-09-30T05:55:18;7.60;;;6.60;;
10641;SDS011;5369;49.586;8.646;2023-09-30T05:57:48;7.60;;;6.37;;
10641;SDS011;5369;49.586;8.646;2023-09-30T06:00:20;10.23;;;7.17;;
10641;SDS011;5369;49.586;8.646;2023-09-30T06:02:48;10.90;;;6.73;;
10641;SDS011;5369;49.586;8.646;2023-09-30T06:05:14;9.70;;;6.83;;
10641;SDS011;5369;49.586;8.646;2023-09-30T06:07:41;8.13;;;6.50;;
10641;SDS011;5369;49.586;8.646;2023-09-30T06:10:10;9.27;;;6.30;;
10641;SDS011;5369;49.586;8.646;2023-09-30T06:12:37;8.70;;;7.37;;
10641;SDS011;5369;49.586;8.646;2023-09-30T06:15:03;8.93;;;6.63;;
10641;SDS011;5369;49.586;8.646;2023-09-30T06:17:29;9.00;;;6.90;;
10641;SDS011;5369;49.586;8.646;2023-09-30T06:19:58;9.87;;;7.50;;
10641;SDS011;5369;49.586;8.646;2023-09-30T06:22:32;10.13;;;7.37;;
10641;SDS011;5369;49.586;8.646;2023-09-30T06:24:59;10.33;;;7.33;;
10641;SDS011;5369;49.586;8.646;2023-09-30T06:27:25;8.07;;;7.00;;
10641;SDS011;5369;49.586;8.646;2023-09-30T06:29:51;8.17;;;6.70;;
10641;SDS011;5369;49.586;8.646;2023-09-30T06:32:18;7.23;;;6.10;;
10641;SDS011;5369;49.586;8.646;2023-09-30T06:34:44;9.10;;;6.90;;
10641;SDS011;5369;49.586;8.646;2023-09-30T06:37:10;8.33;;;7.23;;
10641;SDS011;5369;49.586;8.646;2023-09-30T06:39:36;7.43;;;6.47;;
10641;SDS011;5369;49.586;8.646;2023-09-30T06:42:02;8.77;;;6.70;;
10641;SDS011;5369;49.586;8.646;2023-09-30T06:44:28;8.80;;;6.90;;
10641;SDS011;5369;49.586;8.646;2023-09-30T06:46:56;9.57;;;7.43;;
10641;SDS011;5369;49.586;8.646;2023-09-30T06:49:23;8.70;;;7.23;;
10641;SDS011;5369;49.586;8.646;2023-09-30T06:51:50;11.70;;;7.30;;
10641;SDS011;5369;49.586;8.646;2023-09-30T06:54:16;9.27;;;7.50;;
10641;SDS011;5369;49.586;8.646;2023-09-30T06:56:42;9.37;;;7.20;;
10641;SDS011;5369;49.586;8.646;2023-09-30T06:59:08;8.33;;;7.00;;
10641;SDS011;5369;49.586;8.646;2023-09-30T07:01:34;7.70;;;7.00;;
10641;SDS011;5369;49.586;8.646;2023-09-30T07:04:00;9.67;;;7.60;;
10641;SDS011;5369;49.586;8.646;2023-09-30T07:06:26;9.27;;;5.90;;
10641;SDS011;5369;49.586;8.646;2023-09-30T07:08:53;8.60;;;5.43;;
10641;SDS011;5369;49.586;8.646;2023-09-30T07:11:28;5.80;;;4.40;;
10641;SDS011;5369;49.586;8.646;2023-09-30T07:13:55;5.93;;;4.43;;
10641;SDS011;5369;49.586;8.646;2023-09-30T07:16:22;7.20;;;4.17;;
10641;SDS011;5369;49.586;8.646;2023-09-30T07:18:48;8.03;;;4.93;;
10641;SDS011;5369;49.586;8.646;2023-09-30T07:21:15;8.17;;;4.90;;
10641;SDS011;5369;49.586;8.646;2023-09-30T07:23:41;7.43;;;5.20;;
10641;SDS011;5369;49.586;8.646;2023-09-30T07:26:07;9.60;;;5.50;;
10641;SDS011;5369;49.586;8.646;2023-09-30T07:28:34;6.53;;;5.10;;
10641;SDS011;5369;49.586;8.646;2023-09-30T07:31:00;8.63;;;5.63;;
10641;SDS011;5369;49.586;8.646;2023-09-30T07:33:26;9.73;;;5.50;;
10641;SDS011;5369;49.586;8.646;2023-09-30T07:35:52;7.90;;;5.37;;
10641;SDS011;5369;49.586;8.646;2023-09-30T07:38:21;10.03;;;6.27;;
10641;SDS011;5369;49.586;8.646;2023-09-30T07:40:48;9.43;;;6.17;;
10641;SDS011;5369;49.586;8.646;2023-09-30T07:43:14;10.73;;;6.17;;
10641;SDS011;5369;49.586;8.646;2023-09-30T07:45:43;9.20;;;5.83;;
10641;SDS011;5369;49.586;8.646;2023-09-30T07:48:09;8.80;;;5.10;;
10641;SDS011;5369;49.586;8.646;2023-09-30T07:50:35;7.90;;;4.90;;
10641;SDS011;5369;49.586;8.646;2023-09-30T07:53:02;8.23;;;4.93;;
10641;SDS011;5369;49.586;8.646;2023-09-30T07:55:28;8.57;;;4.93;;
10641;SDS011;5369;49.586;8.646;2023-09-30T07:57:54;6.33;;;4.73;;
10641;SDS011;5369;49.586;8.646;2023-09-30T08:00:25;8.20;;;4.63;;
10641;SDS011;5369;49.586;8.646;2023-09-30T08:02:51;7.33;;;4.40;;
10641;SDS011;5369;49.586;8.646;2023-09-30T08:05:17;8.83;;;4.67;;
10641;SDS011;5369;49.586;8.646;2023-09-30T08:07:43;9.17;;;4.47;;
10641;SDS011;5369;49.586;8.646;2023-09-30T08:10:11;8.60;;;4.67;;
10641;SDS011;5369;49.586;8.646;2023-09-30T08:12:41;8.60;;;5.40;;
10641;SDS011;5369;49.586;8.646;2023-09-30T08:15:11;9.43;;;5.30;;
10641;SDS011;5369;49.586;8.646;2023-09-30T08:17:37;12.70;;;5.80;;
10641;SDS011;5369;49.586;8.646;2023-09-30T08:20:03;7.03;;;5.10;;
10641;SDS011;5369;49.586;8.646;2023-09-30T08:22:29;8.17;;;5.17;;
10641;SDS011;5369;49.586;8.646;2023-09-30T08:24:56;6.80;;;4.23;;
10641;SDS011;5369;49.586;8.646;2023-09-30T08:27:22;8.27;;;5.17;;
10641;SDS011;5369;49.586;8.646;2023-09-30T08:29:51;8.40;;;5.00;;
10641;SDS011;5369;49.586;8.646;2023-09-30T08:32:18;10.13;;;5.30;;
10641;SDS011;5369;49.586;8.646;2023-09-30T08:34:44;9.80;;;4.77;;
10641;SDS011;5369;49.586;8.646;2023-09-30T08:37:10;10.43;;;5.00;;
10641;SDS011;5369;49.586;8.646;2023-09-30T08:39:40;9.00;;;4.63;;
10641;SDS011;5369;49.586;8.646;2023-09-30T08:42:09;9.70;;;5.00;;
10641;SDS011;5369;49.586;8.646;2023-09-30T08:44:39;10.87;;;5.10;;
10641;SDS011;5369;49.586;8.646;2023-09-30T08:47:06;6.73;;;4.57;;
10641;SDS011;5369;49.586;8.646;2023-09-30T08:49:37;9.07;;;5.70;;
10641;SDS011;5369;49.586;8.646;2023-09-30T08:52:09;14.63;;;5.97;;
10641;SDS011;5369;49.586;8.646;2023-09-30T08:54:35;9.73;;;5.80;;
10641;SDS011;5369;49.586;8.646;2023-09-30T08:57:02;8.27;;;5.23;;
10641;SDS011;5369;49.586;8.646;2023-09-30T08:59:30;9.17;;;5.00;;
10641;SDS011;5369;49.586;8.646;2023-09-30T09:01:57;8.37;;;4.80;;
10641;SDS011;5369;49.586;8.646;2023-09-30T09:04:24;8.00;;;4.87;;
10641;SDS011;5369;49.586;8.646;2023-09-30T09:06:50;8.57;;;4.63;;
10641;SDS011;5369;49.586;8.646;2023-09-30T09:09:18;7.77;;;4.67;;
10641;SDS011;5369;49.586;8.646;2023-09-30T09:11:47;8.33;;;4.30;;
10641;SDS011;5369;49.586;8.646;2023-09-30T09:14:14;7.37;;;4.03;;
10641;SDS011;5369;49.586;8.646;2023-09-30T09:16:54;8.93;;;4.70;;
10641;SDS011;5369;49.586;8.646;2023-09-30T09:19:20;9.40;;;5.00;;
10641;SDS011;5369;49.586;8.646;2023-09-30T09:21:53;9.07;;;4.50;;
10641;SDS011;5369;49.586;8.646;2023-09-30T09:24:30;9.00;;;4.70;;
10641;SDS011;5369;49.586;8.646;2023-09-30T09:27:03;10.10;;;4.30;;
10641;SDS011;5369;49.586;8.646;2023-09-30T09:29:30;9.30;;;4.93;;
10641;SDS011;5369;49.586;8.646;2023-09-30T09:32:06;9.07;;;4.40;;
10641;SDS011;5369;49.586;8.646;2023-09-30T09:34:33;9.60;;;4.53;;
10641;SDS011;5369;49.586;8.646;2023-09-30T09:36:59;8.83;;;5.13;;
10641;SDS011;5369;49.586;8.646;2023-09-30T09:39:31;9.37;;;4.77;;
10641;SDS011;5369;49.586;8.646;2023-09-30T09:41:57;6.87;;;4.07;;
10641;SDS011;5369;49.586;8.646;2023-09-30T09:44:26;6.93;;;4.03;;
10641;SDS011;5369;49.586;8.646;2023-09-30T09:46:52;10.50;;;4.53;;
10641;SDS011;5369;49.586;8.646;2023-09-30T09:49:19;9.60;;;4.13;;
10641;SDS011;5369;49.586;8.646;2023-09-30T09:51:46;8.87;;;5.07;;
10641;SDS011;5369;49.586;8.646;2023-09-30T09:54:13;8.47;;;4.93;;
10641;SDS011;5369;49.586;8.646;2023-09-30T09:56:40;11.83;;;5.00;;
10641;SDS011;5369;49.586;8.646;2023-09-30T09:59:07;9.03;;;4.30;;
10641;SDS011;5369;49.586;8.646;2023-09-30T10:01:35;7.73;;;4.37;;
10641;SDS011;5369;49.586;8.646;2023-09-30T10:04:04;8.50;;;5.17;;
10641;SDS011;5369;49.586;8.646;2023-09-30T10:06:30;8.67;;;4.90;;
10641;SDS011;5369;49.586;8.646;2023-09-30T10:09:03;8.53;;;4.23;;
10641;SDS011;5369;49.586;8.646;2023-09-30T10:11:31;7.80;;;4.23;;
10641;SDS011;5369;49.586;8.646;2023-09-30T10:13:57;9.60;;;4.40;;
10641;SDS011;5369;49.586;8.646;2023-09-30T10:19:07;9.60;;;4.23;;
10641;SDS011;5369;49.586;8.646;2023-09-30T10:21:34;8.90;;;4.30;;
10641;SDS011;5369;49.586;8.646;2023-09-30T10:24:27;8.33;;;4.07;;
10641;SDS011;5369;49.586;8.646;2023-09-30T10:29:41;9.83;;;4.50;;
10641;SDS011;5369;49.586;8.646;2023-09-30T10:32:07;10.30;;;4.47;;
10641;SDS011;5369;49.586;8.646;2023-09-30T10:34:34;8.43;;;3.90;;
10641;SDS011;5369;49.586;8.646;2023-09-30T10:37:19;9.63;;;4.93;;
10641;SDS011;5369;49.586;8.646;2023-09-30T10:39:55;9.17;;;4.67;;
10641;SDS011;5369;49.586;8.646;2023-09-30T10:45:07;10.53;;;4.60;;
10641;SDS011;5369;49.586;8.646;2023-09-30T10:47:34;8.00;;;4.40;;
10641;SDS011;5369;49.586;8.646;2023-09-30T10:50:01;9.43;;;4.70;;
10641;SDS011;5369;49.586;8.646;2023-09-30T10:52:27;7.57;;;4.27;;
10641;SDS011;5369;49.586;8.646;2023-09-30T10:54:54;6.57;;;4.07;;
10641;SDS011;5369;49.586;8.646;2023-09-30T10:57:27;7.83;;;4.00;;
10641;SDS011;5369;49.586;8.646;2023-09-30T11:02:47;7.97;;;4.00;;
10641;SDS011;5369;49.586;8.646;2023-09-30T11:05:13;7.73;;;4.37;;
10641;SDS011;5369;49.586;8.646;2023-09-30T11:07:39;7.97;;;3.97;;
10641;SDS011;5369;49.586;8.646;2023-09-30T11:10:06;6.57;;;3.57;;
10641;SDS011;5369;49.586;8.646;2023-09-30T11:12:32;7.83;;;4.10;;
10641;SDS011;5369;49.586;8.646;2023-09-30T11:15:02;9.30;;;4.40;;
10641;SDS011;5369;49.586;8.646;2023-09-30T11:17:29;8.70;;;4.40;;
10641;SDS011;5369;49.586;8.646;2023-09-30T11:19:55;5.50;;;3.67;;
10641;SDS011;5369;49.586;8.646;2023-09-30T11:22:21;8.57;;;4.27;;
10641;SDS011;5369;49.586;8.646;2023-09-30T11:24:48;7.73;;;4.00;;
10641;SDS011;5369;49.586;8.646;2023-09-30T11:27:24;8.63;;;4.40;;
10641;SDS011;5369;49.586;8.646;2023-09-30T11:29:50;7.87;;;4.17;;
10641;SDS011;5369;49.586;8.646;2023-09-30T11:32:24;7.23;;;4.00;;
10641;SDS011;5369;49.586;8.646;2023-09-30T11:34:54;6.50;;;3.93;;
10641;SDS011;5369;49.586;8.646;2023-09-30T11:37:20;6.40;;;4.00;;
10641;SDS011;5369;49.586;8.646;2023-09-30T11:39:47;8.40;;;4.07;;
10641;SDS011;5369;49.586;8.646;2023-09-30T11:42:16;6.87;;;4.07;;
10641;SDS011;5369;49.586;8.646;2023-09-30T11:44:45;6.67;;;4.00;;
10641;SDS011;5369;49.586;8.646;2023-09-30T11:47:15;7.27;;;4.10;;
10641;SDS011;5369;49.586;8.646;2023-09-30T11:49:42;7.97;;;4.07;;
10641;SDS011;5369;49.586;8.646;2023-09-30T11:52:14;6.80;;;3.97;;
10641;SDS011;5369;49.586;8.646;2023-09-30T11:54:41;8.47;;;4.03;;
10641;SDS011;5369;49.586;8.646;2023-09-30T11:57:11;8.13;;;4.30;;
10641;SDS011;5369;49.586;8.646;2023-09-30T11:59:40;8.77;;;4.90;;
10641;SDS011;5369;49.586;8.646;2023-09-30T12:02:10;7.10;;;4.30;;
10641;SDS011;5369;49.586;8.646;2023-09-30T12:04:36;6.83;;;4.50;;
10641;SDS011;5369;49.586;8.646;2023-09-30T12:07:03;8.60;;;4.53;;
10641;SDS011;5369;49.586;8.646;2023-09-30T12:09:29;7.47;;;5.00;;
10641;SDS011;5369;49.586;8.646;2023-09-30T12:11:56;7.53;;;4.20;;
10641;SDS011;5369;49.586;8.646;2023-09-30T12:14:26;9.10;;;4.60;;
10641;SDS011;5369;49.586;8.646;2023-09-30T12:16:54;8.63;;;4.43;;
10641;SDS011;5369;49.586;8.646;2023-09-30T12:19:20;7.67;;;4.30;;
10641;SDS011;5369;49.586;8.646;2023-09-30T12:21:47;9.20;;;4.40;;
10641;SDS011;5369;49.586;8.646;2023-09-30T12:24:13;8.57;;;4.23;;
10641;SDS011;5369;49.586;8.646;2023-09-30T12:26:47;7.67;;;4.33;;
10641;SDS011;5369;49.586;8.646;2023-09-30T12:29:17;7.17;;;4.53;;
10641;SDS011;5369;49.586;8.646;2023-09-30T12:31:46;7.27;;;4.63;;
10641;SDS011;5369;49.586;8.646;2023-09-30T12:34:13;7.87;;;4.50;;
10641;SDS011;5369;49.586;8.646;2023-09-30T12:36:39;7.93;;;4.77;;
10641;SDS011;5369;49.586;8.646;2023-09-30T12:39:06;8.63;;;4.67;;
10641;SDS011;5369;49.586;8.646;2023-09-30T12:41:39;9.37;;;4.93;;
10641;SDS011;5369;49.586;8.646;2023-09-30T12:44:05;9.70;;;4.90;;
10641;SDS011;5369;49.586;8.646;2023-09-30T12:46:32;10.03;;;4.70;;
10641;SDS011;5369;49.586;8.646;2023-09-30T12:49:01;7.00;;;4.93;;
10641;SDS011;5369;49.586;8.646;2023-09-30T12:51:27;8.33;;;5.00;;
10641;SDS011;5369;49.586;8.646;2023-09-30T12:53:54;7.33;;;4.67;;
10641;SDS011;5369;49.586;8.646;2023-09-30T12:56:20;7.50;;;4.53;;
10641;SDS011;5369;49.586;8.646;2023-09-30T12:58:47;6.73;;;5.00;;
10641;SDS011;5369;49.586;8.646;2023-09-30T13:01:13;8.20;;;4.83;;
10641;SDS011;5369;49.586;8.646;2023-09-30T13:03:39;8.77;;;4.80;;
10641;SDS011;5369;49.586;8.646;2023-09-30T13:06:05;7.73;;;4.90;;
10641;SDS011;5369;49.586;8.646;2023-09-30T13:08:32;8.27;;;4.67;;
10641;SDS011;5369;49.586;8.646;2023-09-30T13:11:05;8.60;;;5.27;;
10641;SDS011;5369;49.586;8.646;2023-09-30T13:13:31;9.43;;;5.10;;
10641;SDS011;5369;49.586;8.646;2023-09-30T13:16:02;8.80;;;5.30;;
10641;SDS011;5369;49.586;8.646;2023-09-30T13:18:30;7.40;;;4.40;;
10641;SDS011;5369;49.586;8.646;2023-09-30T13:20:57;7.87;;;4.67;;
10641;SDS011;5369;49.586;8.646;2023-09-30T13:23:23;7.33;;;4.57;;
10641;SDS011;5369;49.586;8.646;2023-09-30T13:25:50;6.73;;;4.40;;
10641;SDS011;5369;49.586;8.646;2023-09-30T13:28:16;7.23;;;4.10;;
10641;SDS011;5369;49.586;8.646;2023-09-30T13:30:42;6.37;;;4.50;;
10641;SDS011;5369;49.586;8.646;2023-09-30T13:33:10;8.20;;;4.83;;
10641;SDS011;5369;49.586;8.646;2023-09-30T13:35:36;6.77;;;4.50;;
10641;SDS011;5369;49.586;8.646;2023-09-30T13:38:03;6.93;;;4.33;;
10641;SDS011;5369;49.586;8.646;2023-09-30T13:40:29;6.70;;;4.60;;
10641;SDS011;5369;49.586;8.646;2023-09-30T13:42:55;6.83;;;4.50;;
10641;SDS011;5369;49.586;8.646;2023-09-30T13:45:24;7.17;;;4.63;;
10641;SDS011;5369;49.586;8.646;2023-09-30T13:47:50;8.47;;;4.23;;
10641;SDS011;5369;49.586;8.646;2023-09-30T13:50:16;8.00;;;4.73;;
10641;SDS011;5369;49.586;8.646;2023-09-30T13:52:42;8.03;;;4.97;;
10641;SDS011;5369;49.586;8.646;2023-09-30T13:55:08;6.53;;;4.20;;
10641;SDS011;5369;49.586;8.646;2023-09-30T13:57:35;6.93;;;4.50;;
10641;SDS011;5369;49.586;8.646;2023-09-30T14:00:02;7.13;;;4.37;;
10641;SDS011;5369;49.586;8.646;2023-09-30T14:02:31;7.60;;;5.10;;
10641;SDS011;5369;49.586;8.646;2023-09-30T14:04:58;6.00;;;4.33;;
10641;SDS011;5369;49.586;8.646;2023-09-30T14:07:24;9.60;;;4.70;;
10641;SDS011;5369;49.586;8.646;2023-09-30T14:09:51;7.00;;;4.47;;
10641;SDS011;5369;49.586;8.646;2023-09-30T14:12:17;6.13;;;4.33;;
10641;SDS011;5369;49.586;8.646;2023-09-30T14:14:44;7.23;;;4.60;;
10641;SDS011;5369;49.586;8.646;2023-09-30T14:17:10;6.40;;;4.50;;
10641;SDS011;5369;49.586;8.646;2023-09-30T14:19:37;6.77;;;4.27;;
10641;SDS011;5369;49.586;8.646;2023-09-30T14:22:04;6.37;;;4.33;;
10641;SDS011;5369;49.586;8.646;2023-09-30T14:24:30;6.73;;;4.63;;
10641;SDS011;5369;49.586;8.646;2023-09-30T14:26:58;8.27;;;4.93;;
10641;SDS011;5369;49.586;8.646;2023-09-30T14:29:24;6.97;;;4.57;;
10641;SDS011;5369;49.586;8.646;2023-09-30T14:31:50;9.00;;;5.10;;
10641;SDS011;5369;49.586;8.646;2023-09-30T14:34:17;7.73;;;4.87;;
10641;SDS011;5369;49.586;8.646;2023-09-30T14:36:43;7.37;;;4.83;;
10641;SDS011;5369;49.586;8.646;2023-09-30T14:39:09;6.03;;;4.37;;
10641;SDS011;5369;49.586;8.646;2023-09-30T14:41:36;7.40;;;4.23;;
10641;SDS011;5369;49.586;8.646;2023-09-30T14:44:02;8.20;;;4.50;;
10641;SDS011;5369;49.586;8.646;2023-09-30T14:46:33;7.57;;;4.77;;
10641;SDS011;5369;49.586;8.646;2023-09-30T14:48:59;7.17;;;4.83;;
10641;SDS011;5369;49.586;8.646;2023-09-30T14:51:25;6.60;;;4.30;;
10641;SDS011;5369;49.586;8.646;2023-09-30T14:53:52;6.23;;;4.53;;
10641;SDS011;5369;49.586;8.646;2023-09-30T14:56:18;7.13;;;4.70;;
10641;SDS011;5369;49.586;8.646;2023-09-30T14:58:44;7.87;;;4.73;;
10641;SDS011;5369;49.586;8.646;2023-09-30T15:01:11;7.40;;;4.50;;
10641;SDS011;5369;49.586;8.646;2023-09-30T15:03:38;7.83;;;4.87;;
10641;SDS011;5369;49.586;8.646;2023-09-30T15:06:04;7.23;;;4.80;;
10641;SDS011;5369;49.586;8.646;2023-09-30T15:08:31;8.70;;;5.30;;
10641;SDS011;5369;49.586;8.646;2023-09-30T15:11:00;7.77;;;5.10;;
10641;SDS011;5369;49.586;8.646;2023-09-30T15:13:27;7.70;;;4.60;;